sensor_id;sensor_type;location;lat;lon;timestamp;P1;durP1;ratioP1;P2;durP2;ratioP2
3779;SDS011;1905;52.482;9.802;2023-05-10T00:01:40;3.10;;;2.83;;
3779;SDS011;1905;52.482;9.802;2023-05-10T00:04:08;4.20;;;3.30;;
3779;SDS011;1905;52.482;9.802;2023-05-10T00:06:35;3.17;;;2.77;;
3779;SDS011;1905;52.482;9.802;2023-05-10T00:09:04;5.30;;;3.13;;
3779;SDS011;1905;52.482;9.802;2023-05-10T00:11:32;3.17;;;2.87;;
3779;SDS011;1905;52.482;9.802;2023-05-10T00:13:59;6.00;;;5.17;;
3779;SDS011;1905;52.482;9.802;2023-05-10T00:16:27;5.00;;;3.00;;
3779;SDS011;1905;52.482;9.802;2023-05-10T00:18:54;5.33;;;3.87;;
3779;SDS011;1905;52.482;9.802;2023-05-10T00:21:22;3.00;;;2.80;;
3779;SDS011;1905;52.482;9.802;2023-05-10T00:23:49;3.20;;;2.70;;
3779;SDS011;1905;52.482;9.802;2023-05-10T00:26:18;3.53;;;3.20;;
3779;SDS011;1905;52.482;9.802;2023-05-10T00:28:50;4.40;;;3.30;;
3779;SDS011;1905;52.482;9.802;2023-05-10T00:31:18;3.67;;;3.00;;
3779;SDS011;1905;52.482;9.802;2023-05-10T00:33:45;5.80;;;3.60;;
3779;SDS011;1905;52.482;9.802;2023-05-10T00:36:13;3.50;;;3.00;;
3779;SDS011;1905;52.482;9.802;2023-05-10T00:38:40;3.60;;;3.20;;
3779;SDS011;1905;52.482;9.802;2023-05-10T00:41:08;3.40;;;3.10;;
3779;SDS011;1905;52.482;9.802;2023-05-10T00:43:39;2.83;;;2.50;;
3779;SDS011;1905;52.482;9.802;2023-05-10T00:46:06;3.60;;;3.30;;
3779;SDS011;1905;52.482;9.802;2023-05-10T00:48:34;3.47;;;3.17;;
3779;SDS011;1905;52.482;9.802;2023-05-10T00:51:02;3.50;;;3.20;;
3779;SDS011;1905;52.482;9.802;2023-05-10T00:53:30;5.77;;;3.50;;
3779;SDS011;1905;52.482;9.802;2023-05-10T00:55:59;3.80;;;3.07;;
3779;SDS011;1905;52.482;9.802;2023-05-10T00:58:27;5.67;;;3.10;;
3779;SDS011;1905;52.482;9.802;2023-05-10T01:00:58;3.90;;;3.50;;
3779;SDS011;1905;52.482;9.802;2023-05-10T01:03:26;5.83;;;3.73;;
3779;SDS011;1905;52.482;9.802;2023-05-10T01:05:55;3.30;;;3.00;;
3779;SDS011;1905;52.482;9.802;2023-05-10T01:08:23;4.13;;;3.03;;
3779;SDS011;1905;52.482;9.802;2023-05-10T01:10:51;4.10;;;2.97;;
3779;SDS011;1905;52.482;9.802;2023-05-10T01:13:23;3.40;;;3.10;;
3779;SDS011;1905;52.482;9.802;2023-05-10T01:16:00;4.80;;;3.70;;
3779;SDS011;1905;52.482;9.802;2023-05-10T01:18:29;3.67;;;3.30;;
3779;SDS011;1905;52.482;9.802;2023-05-10T01:21:02;3.30;;;3.00;;
3779;SDS011;1905;52.482;9.802;2023-05-10T01:23:46;5.70;;;3.23;;
3779;SDS011;1905;52.482;9.802;2023-05-10T01:32:44;3.60;;;3.30;;
3779;SDS011;1905;52.482;9.802;2023-05-10T01:35:17;3.30;;;3.10;;
3779;SDS011;1905;52.482;9.802;2023-05-10T01:37:50;5.70;;;3.77;;
3779;SDS011;1905;52.482;9.802;2023-05-10T01:40:23;4.20;;;3.80;;
3779;SDS011;1905;52.482;9.802;2023-05-10T01:42:59;3.40;;;3.10;;
3779;SDS011;1905;52.482;9.802;2023-05-10T01:45:31;4.77;;;4.17;;
3779;SDS011;1905;52.482;9.802;2023-05-10T01:48:06;4.10;;;3.70;;
3779;SDS011;1905;52.482;9.802;2023-05-10T01:50:36;3.97;;;3.37;;
3779;SDS011;1905;52.482;9.802;2023-05-10T01:53:08;3.53;;;3.23;;
3779;SDS011;1905;52.482;9.802;2023-05-10T01:55:39;3.80;;;3.50;;
3779;SDS011;1905;52.482;9.802;2023-05-10T01:58:20;5.93;;;3.23;;
3779;SDS011;1905;52.482;9.802;2023-05-10T02:00:52;6.77;;;3.93;;
3779;SDS011;1905;52.482;9.802;2023-05-10T02:03:23;4.10;;;3.43;;
3779;SDS011;1905;52.482;9.802;2023-05-10T02:06:02;3.90;;;3.60;;
3779;SDS011;1905;52.482;9.802;2023-05-10T02:08:32;7.60;;;4.03;;
3779;SDS011;1905;52.482;9.802;2023-05-10T02:11:03;4.67;;;4.20;;
3779;SDS011;1905;52.482;9.802;2023-05-10T02:13:32;4.10;;;3.70;;
3779;SDS011;1905;52.482;9.802;2023-05-10T02:16:03;7.30;;;4.77;;
3779;SDS011;1905;52.482;9.802;2023-05-10T02:18:34;7.10;;;4.10;;
3779;SDS011;1905;52.482;9.802;2023-05-10T02:21:03;4.10;;;3.80;;
3779;SDS011;1905;52.482;9.802;2023-05-10T02:23:31;7.80;;;4.80;;
3779;SDS011;1905;52.482;9.802;2023-05-10T02:26:01;5.33;;;4.63;;
3779;SDS011;1905;52.482;9.802;2023-05-10T02:28:31;4.57;;;4.17;;
3779;SDS011;1905;52.482;9.802;2023-05-10T02:31:00;6.47;;;4.63;;
3779;SDS011;1905;52.482;9.802;2023-05-10T02:33:28;4.50;;;4.10;;
3779;SDS011;1905;52.482;9.802;2023-05-10T02:35:59;9.10;;;5.10;;
3779;SDS011;1905;52.482;9.802;2023-05-10T02:38:29;4.33;;;3.93;;
3779;SDS011;1905;52.482;9.802;2023-05-10T02:40:59;5.17;;;4.63;;
3779;SDS011;1905;52.482;9.802;2023-05-10T02:43:28;5.17;;;4.67;;
3779;SDS011;1905;52.482;9.802;2023-05-10T02:45:59;4.80;;;4.20;;
3779;SDS011;1905;52.482;9.802;2023-05-10T02:48:27;4.70;;;4.00;;
3779;SDS011;1905;52.482;9.802;2023-05-10T02:50:56;5.47;;;4.67;;
3779;SDS011;1905;52.482;9.802;2023-05-10T02:53:30;7.07;;;5.10;;
3779;SDS011;1905;52.482;9.802;2023-05-10T02:55:59;5.03;;;4.50;;
3779;SDS011;1905;52.482;9.802;2023-05-10T02:58:33;5.23;;;3.70;;
3779;SDS011;1905;52.482;9.802;2023-05-10T03:01:00;5.97;;;4.60;;
3779;SDS011;1905;52.482;9.802;2023-05-10T03:03:28;5.03;;;4.63;;
3779;SDS011;1905;52.482;9.802;2023-05-10T03:05:56;4.83;;;4.43;;
3779;SDS011;1905;52.482;9.802;2023-05-10T03:08:24;5.17;;;4.67;;
3779;SDS011;1905;52.482;9.802;2023-05-10T03:11:01;8.40;;;5.17;;
3779;SDS011;1905;52.482;9.802;2023-05-10T03:13:39;8.50;;;5.50;;
3779;SDS011;1905;52.482;9.802;2023-05-10T03:16:14;4.97;;;4.13;;
3779;SDS011;1905;52.482;9.802;2023-05-10T03:18:44;5.33;;;4.63;;
3779;SDS011;1905;52.482;9.802;2023-05-10T03:21:14;9.50;;;4.60;;
3779;SDS011;1905;52.482;9.802;2023-05-10T03:23:50;7.63;;;4.73;;
3779;SDS011;1905;52.482;9.802;2023-05-10T03:26:24;5.53;;;5.03;;
3779;SDS011;1905;52.482;9.802;2023-05-10T03:29:02;6.47;;;5.00;;
3779;SDS011;1905;52.482;9.802;2023-05-10T03:31:31;9.47;;;5.40;;
3779;SDS011;1905;52.482;9.802;2023-05-10T03:34:00;7.57;;;5.03;;
3779;SDS011;1905;52.482;9.802;2023-05-10T03:36:28;7.97;;;5.07;;
3779;SDS011;1905;52.482;9.802;2023-05-10T03:38:55;6.97;;;4.90;;
3779;SDS011;1905;52.482;9.802;2023-05-10T03:41:25;7.90;;;4.97;;
3779;SDS011;1905;52.482;9.802;2023-05-10T03:43:53;5.40;;;5.00;;
3779;SDS011;1905;52.482;9.802;2023-05-10T03:46:21;7.20;;;5.30;;
3779;SDS011;1905;52.482;9.802;2023-05-10T03:48:48;5.23;;;4.73;;
3779;SDS011;1905;52.482;9.802;2023-05-10T03:51:17;5.63;;;4.97;;
3779;SDS011;1905;52.482;9.802;2023-05-10T03:53:44;5.87;;;5.23;;
3779;SDS011;1905;52.482;9.802;2023-05-10T03:56:12;7.23;;;4.77;;
3779;SDS011;1905;52.482;9.802;2023-05-10T03:58:41;5.10;;;4.60;;
3779;SDS011;1905;52.482;9.802;2023-05-10T04:01:08;5.20;;;4.67;;
3779;SDS011;1905;52.482;9.802;2023-05-10T04:03:36;9.83;;;5.47;;
3779;SDS011;1905;52.482;9.802;2023-05-10T04:06:04;5.70;;;5.10;;
3779;SDS011;1905;52.482;9.802;2023-05-10T04:08:34;6.17;;;5.50;;
3779;SDS011;1905;52.482;9.802;2023-05-10T04:11:05;4.93;;;4.23;;
3779;SDS011;1905;52.482;9.802;2023-05-10T04:13:34;7.53;;;5.93;;
3779;SDS011;1905;52.482;9.802;2023-05-10T04:16:04;6.83;;;6.13;;
3779;SDS011;1905;52.482;9.802;2023-05-10T04:18:34;5.60;;;5.10;;
3779;SDS011;1905;52.482;9.802;2023-05-10T04:21:02;6.10;;;5.50;;
3779;SDS011;1905;52.482;9.802;2023-05-10T04:23:29;9.07;;;5.97;;
3779;SDS011;1905;52.482;9.802;2023-05-10T04:26:00;7.20;;;5.60;;
3779;SDS011;1905;52.482;9.802;2023-05-10T04:28:28;9.63;;;6.40;;
3779;SDS011;1905;52.482;9.802;2023-05-10T04:31:00;7.43;;;5.30;;
3779;SDS011;1905;52.482;9.802;2023-05-10T04:33:30;8.57;;;5.80;;
3779;SDS011;1905;52.482;9.802;2023-05-10T04:35:58;6.77;;;5.77;;
3779;SDS011;1905;52.482;9.802;2023-05-10T04:38:26;7.37;;;5.47;;
3779;SDS011;1905;52.482;9.802;2023-05-10T04:40:53;8.20;;;4.67;;
3779;SDS011;1905;52.482;9.802;2023-05-10T04:43:21;9.60;;;5.80;;
3779;SDS011;1905;52.482;9.802;2023-05-10T04:45:49;6.27;;;5.30;;
3779;SDS011;1905;52.482;9.802;2023-05-10T04:48:16;6.80;;;5.27;;
3779;SDS011;1905;52.482;9.802;2023-05-10T04:50:45;9.30;;;6.00;;
3779;SDS011;1905;52.482;9.802;2023-05-10T04:53:13;8.40;;;5.93;;
3779;SDS011;1905;52.482;9.802;2023-05-10T04:55:41;6.10;;;5.10;;
3779;SDS011;1905;52.482;9.802;2023-05-10T04:58:09;7.53;;;5.70;;
3779;SDS011;1905;52.482;9.802;2023-05-10T05:00:36;6.40;;;5.80;;
3779;SDS011;1905;52.482;9.802;2023-05-10T05:03:04;6.00;;;5.00;;
3779;SDS011;1905;52.482;9.802;2023-05-10T05:05:32;6.60;;;5.53;;
3779;SDS011;1905;52.482;9.802;2023-05-10T05:08:01;7.60;;;6.53;;
3779;SDS011;1905;52.482;9.802;2023-05-10T05:10:28;6.50;;;5.00;;
3779;SDS011;1905;52.482;9.802;2023-05-10T05:12:56;9.20;;;5.63;;
3779;SDS011;1905;52.482;9.802;2023-05-10T05:15:24;7.93;;;5.63;;
3779;SDS011;1905;52.482;9.802;2023-05-10T05:17:51;6.20;;;5.30;;
3779;SDS011;1905;52.482;9.802;2023-05-10T05:20:19;5.40;;;5.00;;
3779;SDS011;1905;52.482;9.802;2023-05-10T05:22:46;6.13;;;5.50;;
3779;SDS011;1905;52.482;9.802;2023-05-10T05:25:15;5.97;;;5.37;;
3779;SDS011;1905;52.482;9.802;2023-05-10T05:27:43;9.07;;;6.73;;
3779;SDS011;1905;52.482;9.802;2023-05-10T05:30:11;7.40;;;6.07;;
3779;SDS011;1905;52.482;9.802;2023-05-10T05:32:38;7.27;;;5.53;;
3779;SDS011;1905;52.482;9.802;2023-05-10T05:35:06;6.30;;;5.77;;
3779;SDS011;1905;52.482;9.802;2023-05-10T05:37:34;18.07;;;6.53;;
3779;SDS011;1905;52.482;9.802;2023-05-10T05:40:03;6.80;;;6.10;;
3779;SDS011;1905;52.482;9.802;2023-05-10T05:42:33;6.40;;;5.30;;
3779;SDS011;1905;52.482;9.802;2023-05-10T05:45:05;7.30;;;5.40;;
3779;SDS011;1905;52.482;9.802;2023-05-10T05:47:34;7.43;;;5.27;;
3779;SDS011;1905;52.482;9.802;2023-05-10T05:50:02;8.93;;;6.90;;
3779;SDS011;1905;52.482;9.802;2023-05-10T05:52:30;7.73;;;6.40;;
3779;SDS011;1905;52.482;9.802;2023-05-10T05:54:58;8.23;;;6.27;;
3779;SDS011;1905;52.482;9.802;2023-05-10T05:57:27;7.43;;;5.70;;
3779;SDS011;1905;52.482;9.802;2023-05-10T05:59:56;7.37;;;5.67;;
3779;SDS011;1905;52.482;9.802;2023-05-10T06:02:24;6.17;;;5.20;;
3779;SDS011;1905;52.482;9.802;2023-05-10T06:04:51;8.20;;;7.10;;
3779;SDS011;1905;52.482;9.802;2023-05-10T06:07:19;9.07;;;6.50;;
3779;SDS011;1905;52.482;9.802;2023-05-10T06:09:47;6.03;;;5.17;;
3779;SDS011;1905;52.482;9.802;2023-05-10T06:12:14;10.33;;;7.07;;
3779;SDS011;1905;52.482;9.802;2023-05-10T06:14:42;7.93;;;6.00;;
3779;SDS011;1905;52.482;9.802;2023-05-10T06:17:10;7.63;;;6.33;;
3779;SDS011;1905;52.482;9.802;2023-05-10T06:19:38;6.67;;;5.97;;
3779;SDS011;1905;52.482;9.802;2023-05-10T06:22:05;7.70;;;6.17;;
3779;SDS011;1905;52.482;9.802;2023-05-10T06:24:33;8.57;;;6.20;;
3779;SDS011;1905;52.482;9.802;2023-05-10T06:27:01;8.53;;;6.33;;
3779;SDS011;1905;52.482;9.802;2023-05-10T06:29:30;6.10;;;5.50;;
3779;SDS011;1905;52.482;9.802;2023-05-10T06:31:57;6.90;;;5.63;;
3779;SDS011;1905;52.482;9.802;2023-05-10T06:34:26;8.20;;;6.90;;
3779;SDS011;1905;52.482;9.802;2023-05-10T06:36:54;8.23;;;5.73;;
3779;SDS011;1905;52.482;9.802;2023-05-10T06:39:21;6.10;;;5.50;;
3779;SDS011;1905;52.482;9.802;2023-05-10T06:41:49;7.80;;;6.40;;
3779;SDS011;1905;52.482;9.802;2023-05-10T06:44:18;6.50;;;5.80;;
3779;SDS011;1905;52.482;9.802;2023-05-10T06:46:45;7.90;;;6.03;;
3779;SDS011;1905;52.482;9.802;2023-05-10T06:49:13;7.13;;;5.83;;
3779;SDS011;1905;52.482;9.802;2023-05-10T06:51:42;9.20;;;6.10;;
3779;SDS011;1905;52.482;9.802;2023-05-10T06:54:09;9.73;;;5.90;;
3779;SDS011;1905;52.482;9.802;2023-05-10T06:56:37;6.27;;;4.73;;
3779;SDS011;1905;52.482;9.802;2023-05-10T06:59:05;7.50;;;6.23;;
3779;SDS011;1905;52.482;9.802;2023-05-10T07:01:33;9.43;;;6.80;;
3779;SDS011;1905;52.482;9.802;2023-05-10T07:04:03;8.20;;;7.47;;
3779;SDS011;1905;52.482;9.802;2023-05-10T07:06:31;6.23;;;5.63;;
3779;SDS011;1905;52.482;9.802;2023-05-10T07:09:00;8.87;;;6.20;;
3779;SDS011;1905;52.482;9.802;2023-05-10T07:11:28;7.93;;;5.77;;
3779;SDS011;1905;52.482;9.802;2023-05-10T07:13:56;8.50;;;6.43;;
3779;SDS011;1905;52.482;9.802;2023-05-10T07:16:23;6.93;;;5.90;;
3779;SDS011;1905;52.482;9.802;2023-05-10T07:18:51;10.50;;;6.33;;
3779;SDS011;1905;52.482;9.802;2023-05-10T07:21:19;8.23;;;6.40;;
3779;SDS011;1905;52.482;9.802;2023-05-10T07:23:50;9.53;;;6.80;;
3779;SDS011;1905;52.482;9.802;2023-05-10T07:26:19;6.63;;;5.50;;
3779;SDS011;1905;52.482;9.802;2023-05-10T07:28:47;8.03;;;7.23;;
3779;SDS011;1905;52.482;9.802;2023-05-10T07:31:14;10.40;;;7.33;;
3779;SDS011;1905;52.482;9.802;2023-05-10T07:33:42;12.30;;;6.50;;
3779;SDS011;1905;52.482;9.802;2023-05-10T07:36:09;8.80;;;7.20;;
3779;SDS011;1905;52.482;9.802;2023-05-10T07:38:37;8.50;;;6.47;;
3779;SDS011;1905;52.482;9.802;2023-05-10T07:41:06;9.60;;;6.90;;
3779;SDS011;1905;52.482;9.802;2023-05-10T07:43:41;8.93;;;6.70;;
3779;SDS011;1905;52.482;9.802;2023-05-10T07:46:08;9.77;;;6.80;;
3779;SDS011;1905;52.482;9.802;2023-05-10T07:48:37;9.43;;;6.47;;
3779;SDS011;1905;52.482;9.802;2023-05-10T07:51:04;11.10;;;6.47;;
3779;SDS011;1905;52.482;9.802;2023-05-10T07:53:35;7.17;;;5.37;;
3779;SDS011;1905;52.482;9.802;2023-05-10T07:58:50;6.90;;;6.07;;
3779;SDS011;1905;52.482;9.802;2023-05-10T08:01:17;9.40;;;6.70;;
3779;SDS011;1905;52.482;9.802;2023-05-10T08:03:45;16.27;;;8.20;;
3779;SDS011;1905;52.482;9.802;2023-05-10T08:06:13;9.27;;;5.60;;
3779;SDS011;1905;52.482;9.802;2023-05-10T08:08:41;17.57;;;8.60;;
3779;SDS011;1905;52.482;9.802;2023-05-10T08:11:09;9.10;;;6.50;;
3779;SDS011;1905;52.482;9.802;2023-05-10T08:13:36;8.40;;;6.40;;
3779;SDS011;1905;52.482;9.802;2023-05-10T08:16:05;10.93;;;7.37;;
3779;SDS011;1905;52.482;9.802;2023-05-10T08:18:33;8.70;;;5.77;;
3779;SDS011;1905;52.482;9.802;2023-05-10T08:21:01;9.67;;;6.60;;
3779;SDS011;1905;52.482;9.802;2023-05-10T08:23:28;72.63;;;15.50;;
3779;SDS011;1905;52.482;9.802;2023-05-10T08:25:56;9.83;;;6.70;;
3779;SDS011;1905;52.482;9.802;2023-05-10T08:28:23;18.93;;;6.80;;
3779;SDS011;1905;52.482;9.802;2023-05-10T08:30:51;6.97;;;6.27;;
3779;SDS011;1905;52.482;9.802;2023-05-10T08:33:31;9.83;;;5.80;;
3779;SDS011;1905;52.482;9.802;2023-05-10T08:35:59;7.20;;;5.60;;
3779;SDS011;1905;52.482;9.802;2023-05-10T08:38:26;5.80;;;5.10;;
3779;SDS011;1905;52.482;9.802;2023-05-10T08:40:54;15.40;;;6.40;;
3779;SDS011;1905;52.482;9.802;2023-05-10T08:43:26;9.77;;;6.77;;
3779;SDS011;1905;52.482;9.802;2023-05-10T08:45:55;8.90;;;5.00;;
3779;SDS011;1905;52.482;9.802;2023-05-10T08:48:24;10.27;;;5.87;;
3779;SDS011;1905;52.482;9.802;2023-05-10T08:50:53;8.00;;;5.03;;
3779;SDS011;1905;52.482;9.802;2023-05-10T08:53:22;7.63;;;5.43;;
3779;SDS011;1905;52.482;9.802;2023-05-10T08:55:52;5.57;;;3.70;;
3779;SDS011;1905;52.482;9.802;2023-05-10T08:58:20;6.37;;;5.30;;
3779;SDS011;1905;52.482;9.802;2023-05-10T09:00:48;7.60;;;4.30;;
3779;SDS011;1905;52.482;9.802;2023-05-10T09:03:17;5.40;;;4.90;;
3779;SDS011;1905;52.482;9.802;2023-05-10T09:05:45;8.50;;;6.10;;
3779;SDS011;1905;52.482;9.802;2023-05-10T09:08:14;7.50;;;5.10;;
3779;SDS011;1905;52.482;9.802;2023-05-10T09:10:43;6.80;;;4.97;;
3779;SDS011;1905;52.482;9.802;2023-05-10T09:13:10;4.40;;;3.30;;
3779;SDS011;1905;52.482;9.802;2023-05-10T09:15:38;4.90;;;2.93;;
3779;SDS011;1905;52.482;9.802;2023-05-10T09:18:06;7.10;;;4.10;;
3779;SDS011;1905;52.482;9.802;2023-05-10T09:20:33;2.40;;;2.20;;
3779;SDS011;1905;52.482;9.802;2023-05-10T09:23:01;2.50;;;2.07;;
3779;SDS011;1905;52.482;9.802;2023-05-10T09:25:30;1.90;;;1.53;;
3779;SDS011;1905;52.482;9.802;2023-05-10T09:27:59;2.50;;;2.30;;
3779;SDS011;1905;52.482;9.802;2023-05-10T09:30:27;2.30;;;1.83;;
3779;SDS011;1905;52.482;9.802;2023-05-10T09:32:56;2.03;;;1.80;;
3779;SDS011;1905;52.482;9.802;2023-05-10T09:35:25;2.37;;;2.17;;
3779;SDS011;1905;52.482;9.802;2023-05-10T09:37:56;4.20;;;3.03;;
3779;SDS011;1905;52.482;9.802;2023-05-10T09:40:25;5.90;;;4.17;;
3779;SDS011;1905;52.482;9.802;2023-05-10T09:42:56;4.53;;;3.43;;
3779;SDS011;1905;52.482;9.802;2023-05-10T09:45:25;4.23;;;3.77;;
3779;SDS011;1905;52.482;9.802;2023-05-10T09:47:54;3.47;;;3.03;;
3779;SDS011;1905;52.482;9.802;2023-05-10T09:50:22;5.87;;;3.83;;
3779;SDS011;1905;52.482;9.802;2023-05-10T09:52:51;4.40;;;2.53;;
3779;SDS011;1905;52.482;9.802;2023-05-10T09:55:21;4.23;;;3.00;;
3779;SDS011;1905;52.482;9.802;2023-05-10T09:57:58;3.80;;;2.70;;
3779;SDS011;1905;52.482;9.802;2023-05-10T10:00:28;2.43;;;2.23;;
3779;SDS011;1905;52.482;9.802;2023-05-10T10:03:02;2.13;;;2.00;;
3779;SDS011;1905;52.482;9.802;2023-05-10T10:05:32;2.43;;;2.23;;
3779;SDS011;1905;52.482;9.802;2023-05-10T10:08:01;2.73;;;2.43;;
3779;SDS011;1905;52.482;9.802;2023-05-10T10:10:31;6.20;;;5.33;;
3779;SDS011;1905;52.482;9.802;2023-05-10T10:13:01;7.40;;;4.53;;
3779;SDS011;1905;52.482;9.802;2023-05-10T10:15:32;10.83;;;6.43;;
3779;SDS011;1905;52.482;9.802;2023-05-10T10:18:00;12.27;;;8.37;;
3779;SDS011;1905;52.482;9.802;2023-05-10T10:20:29;12.40;;;8.03;;
3779;SDS011;1905;52.482;9.802;2023-05-10T10:22:57;5.70;;;4.80;;
3779;SDS011;1905;52.482;9.802;2023-05-10T10:25:24;4.27;;;3.87;;
3779;SDS011;1905;52.482;9.802;2023-05-10T10:27:56;2.67;;;2.47;;
3779;SDS011;1905;52.482;9.802;2023-05-10T10:30:35;4.63;;;3.30;;
3779;SDS011;1905;52.482;9.802;2023-05-10T10:33:10;3.47;;;3.17;;
3779;SDS011;1905;52.482;9.802;2023-05-10T10:35:54;2.67;;;2.47;;
3779;SDS011;1905;52.482;9.802;2023-05-10T10:38:25;6.00;;;2.50;;
3779;SDS011;1905;52.482;9.802;2023-05-10T10:41:01;2.50;;;2.27;;
3779;SDS011;1905;52.482;9.802;2023-05-10T10:43:31;3.00;;;2.70;;
3779;SDS011;1905;52.482;9.802;2023-05-10T10:46:11;4.63;;;3.63;;
3779;SDS011;1905;52.482;9.802;2023-05-10T10:48:40;3.70;;;3.20;;
3779;SDS011;1905;52.482;9.802;2023-05-10T10:51:09;4.30;;;3.47;;
3779;SDS011;1905;52.482;9.802;2023-05-10T10:53:38;4.17;;;3.50;;
3779;SDS011;1905;52.482;9.802;2023-05-10T10:56:08;3.63;;;3.30;;
3779;SDS011;1905;52.482;9.802;2023-05-10T10:58:38;4.53;;;3.60;;
3779;SDS011;1905;52.482;9.802;2023-05-10T11:01:13;3.33;;;3.00;;
3779;SDS011;1905;52.482;9.802;2023-05-10T11:03:54;4.57;;;4.17;;
3779;SDS011;1905;52.482;9.802;2023-05-10T11:06:43;3.93;;;3.63;;
3779;SDS011;1905;52.482;9.802;2023-05-10T11:09:11;3.67;;;3.37;;
3779;SDS011;1905;52.482;9.802;2023-05-10T11:11:49;4.50;;;3.87;;
3779;SDS011;1905;52.482;9.802;2023-05-10T11:14:22;4.47;;;3.80;;
3779;SDS011;1905;52.482;9.802;2023-05-10T11:16:50;4.40;;;3.73;;
3779;SDS011;1905;52.482;9.802;2023-05-10T11:19:17;3.57;;;3.27;;
3779;SDS011;1905;52.482;9.802;2023-05-10T11:21:47;3.73;;;3.43;;
3779;SDS011;1905;52.482;9.802;2023-05-10T11:24:16;8.47;;;3.53;;
3779;SDS011;1905;52.482;9.802;2023-05-10T11:26:49;4.97;;;4.10;;
3779;SDS011;1905;52.482;9.802;2023-05-10T11:29:17;8.90;;;4.20;;
3779;SDS011;1905;52.482;9.802;2023-05-10T11:31:50;6.30;;;3.47;;
3779;SDS011;1905;52.482;9.802;2023-05-10T11:34:25;4.10;;;3.70;;
3779;SDS011;1905;52.482;9.802;2023-05-10T11:36:54;6.10;;;3.90;;
3779;SDS011;1905;52.482;9.802;2023-05-10T11:39:25;4.13;;;3.80;;
3779;SDS011;1905;52.482;9.802;2023-05-10T11:41:54;4.80;;;3.93;;
3779;SDS011;1905;52.482;9.802;2023-05-10T11:44:21;3.80;;;3.47;;
3779;SDS011;1905;52.482;9.802;2023-05-10T11:46:50;5.80;;;4.33;;
3779;SDS011;1905;52.482;9.802;2023-05-10T11:49:19;3.90;;;3.50;;
3779;SDS011;1905;52.482;9.802;2023-05-10T11:51:50;6.33;;;5.80;;
3779;SDS011;1905;52.482;9.802;2023-05-10T11:54:17;4.93;;;3.40;;
3779;SDS011;1905;52.482;9.802;2023-05-10T11:56:44;4.43;;;3.90;;
3779;SDS011;1905;52.482;9.802;2023-05-10T11:59:13;3.93;;;3.63;;
3779;SDS011;1905;52.482;9.802;2023-05-10T12:01:41;8.27;;;4.27;;
3779;SDS011;1905;52.482;9.802;2023-05-10T12:04:10;6.40;;;3.70;;
3779;SDS011;1905;52.482;9.802;2023-05-10T12:06:39;5.70;;;3.53;;
3779;SDS011;1905;52.482;9.802;2023-05-10T12:09:07;4.20;;;3.80;;
3779;SDS011;1905;52.482;9.802;2023-05-10T12:11:36;4.70;;;3.63;;
3779;SDS011;1905;52.482;9.802;2023-05-10T12:14:09;4.20;;;3.33;;
3779;SDS011;1905;52.482;9.802;2023-05-10T12:16:36;6.23;;;3.93;;
3779;SDS011;1905;52.482;9.802;2023-05-10T12:19:04;5.90;;;4.37;;
3779;SDS011;1905;52.482;9.802;2023-05-10T12:21:40;4.83;;;4.10;;
3779;SDS011;1905;52.482;9.802;2023-05-10T12:24:07;6.13;;;3.50;;
3779;SDS011;1905;52.482;9.802;2023-05-10T12:26:35;4.07;;;3.40;;
3779;SDS011;1905;52.482;9.802;2023-05-10T12:29:12;3.83;;;3.53;;
3779;SDS011;1905;52.482;9.802;2023-05-10T12:31:51;5.70;;;3.33;;
3779;SDS011;1905;52.482;9.802;2023-05-10T12:34:26;4.17;;;3.20;;
3779;SDS011;1905;52.482;9.802;2023-05-10T12:36:55;6.43;;;3.83;;
3779;SDS011;1905;52.482;9.802;2023-05-10T12:39:23;4.70;;;4.00;;
3779;SDS011;1905;52.482;9.802;2023-05-10T12:41:50;4.27;;;3.80;;
3779;SDS011;1905;52.482;9.802;2023-05-10T12:44:18;4.00;;;3.20;;
3779;SDS011;1905;52.482;9.802;2023-05-10T12:46:46;5.27;;;4.13;;
3779;SDS011;1905;52.482;9.802;2023-05-10T12:49:13;7.87;;;4.73;;
3779;SDS011;1905;52.482;9.802;2023-05-10T12:51:41;6.20;;;5.60;;
3779;SDS011;1905;52.482;9.802;2023-05-10T12:54:10;3.90;;;3.20;;
3779;SDS011;1905;52.482;9.802;2023-05-10T12:56:38;3.77;;;3.40;;
3779;SDS011;1905;52.482;9.802;2023-05-10T12:59:07;4.30;;;3.37;;
3779;SDS011;1905;52.482;9.802;2023-05-10T13:01:34;6.93;;;3.60;;
3779;SDS011;1905;52.482;9.802;2023-05-10T13:04:02;4.93;;;3.00;;
3779;SDS011;1905;52.482;9.802;2023-05-10T13:06:29;3.40;;;3.00;;
3779;SDS011;1905;52.482;9.802;2023-05-10T13:08:57;3.77;;;3.20;;
3779;SDS011;1905;52.482;9.802;2023-05-10T13:11:26;3.33;;;2.93;;
3779;SDS011;1905;52.482;9.802;2023-05-10T13:13:53;4.70;;;3.20;;
3779;SDS011;1905;52.482;9.802;2023-05-10T13:16:21;3.27;;;2.97;;
3779;SDS011;1905;52.482;9.802;2023-05-10T13:18:49;5.23;;;3.40;;
3779;SDS011;1905;52.482;9.802;2023-05-10T13:21:17;4.17;;;3.77;;
3779;SDS011;1905;52.482;9.802;2023-05-10T13:23:44;4.83;;;3.97;;
3779;SDS011;1905;52.482;9.802;2023-05-10T13:26:12;6.17;;;4.33;;
3779;SDS011;1905;52.482;9.802;2023-05-10T13:28:41;5.80;;;4.23;;
3779;SDS011;1905;52.482;9.802;2023-05-10T13:31:09;5.10;;;3.67;;
3779;SDS011;1905;52.482;9.802;2023-05-10T13:33:36;5.13;;;3.70;;
3779;SDS011;1905;52.482;9.802;2023-05-10T13:36:04;5.33;;;4.27;;
3779;SDS011;1905;52.482;9.802;2023-05-10T13:38:33;4.47;;;3.10;;
3779;SDS011;1905;52.482;9.802;2023-05-10T13:41:00;3.33;;;2.77;;
3779;SDS011;1905;52.482;9.802;2023-05-10T13:43:28;6.43;;;3.50;;
3779;SDS011;1905;52.482;9.802;2023-05-10T13:45:57;4.57;;;3.47;;
3779;SDS011;1905;52.482;9.802;2023-05-10T13:48:27;5.90;;;4.73;;
3779;SDS011;1905;52.482;9.802;2023-05-10T13:50:55;4.27;;;3.93;;
3779;SDS011;1905;52.482;9.802;2023-05-10T13:53:23;4.73;;;4.10;;
3779;SDS011;1905;52.482;9.802;2023-05-10T13:55:50;6.30;;;4.30;;
3779;SDS011;1905;52.482;9.802;2023-05-10T13:58:18;7.17;;;4.27;;
3779;SDS011;1905;52.482;9.802;2023-05-10T14:00:45;7.10;;;4.50;;
3779;SDS011;1905;52.482;9.802;2023-05-10T14:03:14;7.17;;;4.30;;
3779;SDS011;1905;52.482;9.802;2023-05-10T14:05:42;7.93;;;5.47;;
3779;SDS011;1905;52.482;9.802;2023-05-10T14:08:11;8.10;;;4.23;;
3779;SDS011;1905;52.482;9.802;2023-05-10T14:10:39;8.80;;;5.10;;
3779;SDS011;1905;52.482;9.802;2023-05-10T14:13:06;6.67;;;5.07;;
3779;SDS011;1905;52.482;9.802;2023-05-10T14:15:34;10.60;;;4.53;;
3779;SDS011;1905;52.482;9.802;2023-05-10T14:18:01;10.27;;;5.50;;
3779;SDS011;1905;52.482;9.802;2023-05-10T14:20:31;5.03;;;3.93;;
3779;SDS011;1905;52.482;9.802;2023-05-10T14:22:59;6.70;;;4.90;;
3779;SDS011;1905;52.482;9.802;2023-05-10T14:25:27;6.87;;;5.00;;
3779;SDS011;1905;52.482;9.802;2023-05-10T14:27:54;10.80;;;6.07;;
3779;SDS011;1905;52.482;9.802;2023-05-10T14:30:22;9.93;;;6.60;;
3779;SDS011;1905;52.482;9.802;2023-05-10T14:32:49;10.77;;;7.03;;
3779;SDS011;1905;52.482;9.802;2023-05-10T14:35:18;12.57;;;7.20;;
3779;SDS011;1905;52.482;9.802;2023-05-10T14:37:48;11.20;;;5.47;;
3779;SDS011;1905;52.482;9.802;2023-05-10T14:40:16;6.37;;;5.30;;
3779;SDS011;1905;52.482;9.802;2023-05-10T14:42:44;13.23;;;6.37;;
3779;SDS011;1905;52.482;9.802;2023-05-10T14:45:11;8.90;;;6.10;;
3779;SDS011;1905;52.482;9.802;2023-05-10T14:47:39;9.30;;;5.33;;
3779;SDS011;1905;52.482;9.802;2023-05-10T14:50:07;9.00;;;5.90;;
3779;SDS011;1905;52.482;9.802;2023-05-10T14:52:35;11.13;;;7.40;;
3779;SDS011;1905;52.482;9.802;2023-05-10T14:55:04;9.87;;;6.33;;
3779;SDS011;1905;52.482;9.802;2023-05-10T14:57:34;12.07;;;7.30;;
3779;SDS011;1905;52.482;9.802;2023-05-10T15:00:06;9.80;;;7.13;;
3779;SDS011;1905;52.482;9.802;2023-05-10T15:02:34;9.47;;;6.13;;
3779;SDS011;1905;52.482;9.802;2023-05-10T15:05:02;12.93;;;7.60;;
3779;SDS011;1905;52.482;9.802;2023-05-10T15:07:31;20.63;;;12.97;;
3779;SDS011;1905;52.482;9.802;2023-05-10T15:09:59;13.27;;;7.23;;
3779;SDS011;1905;52.482;9.802;2023-05-10T15:12:28;12.33;;;8.13;;
3779;SDS011;1905;52.482;9.802;2023-05-10T15:14:56;13.60;;;8.40;;
3779;SDS011;1905;52.482;9.802;2023-05-10T15:17:23;12.03;;;6.73;;
3779;SDS011;1905;52.482;9.802;2023-05-10T15:19:51;10.10;;;7.00;;
3779;SDS011;1905;52.482;9.802;2023-05-10T15:22:18;13.30;;;6.87;;
3779;SDS011;1905;52.482;9.802;2023-05-10T15:24:47;8.13;;;6.30;;
3779;SDS011;1905;52.482;9.802;2023-05-10T15:27:14;8.93;;;6.47;;
3779;SDS011;1905;52.482;9.802;2023-05-10T15:29:43;9.43;;;6.20;;
3779;SDS011;1905;52.482;9.802;2023-05-10T15:32:11;10.37;;;7.30;;
3779;SDS011;1905;52.482;9.802;2023-05-10T15:34:39;13.83;;;7.70;;
3779;SDS011;1905;52.482;9.802;2023-05-10T15:37:07;13.70;;;7.37;;